Home > Products > Valid Products > TAF

000
FTUS42 KMFL 252221 AAA
TAFPBI
TAF AMD
KPBI 252221Z 2522/2618 24005KT P6SM BKN250
     FM260600 25005KT P6SM SCT100 BKN250
     FM261200 22008KT P6SM OVC050
     FM261400 25015G25KT P6SM OVC050=



000
FTUS42 KMFL 252221 AAA
TAFPBI
TAF AMD
KPBI 252221Z 2522/2618 24005KT P6SM BKN250
     FM260600 25005KT P6SM SCT100 BKN250
     FM261200 22008KT P6SM OVC050
     FM261400 25015G25KT P6SM OVC050=



000
FTUS42 KMFL 252221 AAA
TAFFLL
TAF AMD
KFLL 252221Z 2522/2618 VRB04KT P6SM SKC
     FM260600 26005KT P6SM BKN250
     FM261200 24006KT P6SM OVC050
     FM261500 26015G25KT P6SM OVC050=



000
FTUS42 KMFL 252221 AAA
TAFAPF
TAF AMD
KAPF 252221Z 2522/2618 VRB04KT P6SM SKC
     FM261200 26015KT P6SM OVC025
     FM261400 27015G25KT P6SM BKN050=



000
FTUS42 KMFL 252221 AAA
TAFMIA
TAF AMD
KMIA 252221Z 2522/2618 VRB04KT P6SM SKC
     FM260600 27003KT P6SM BKN250
     FM261200 24006KT P6SM BKN050
     FM261500 26015G25KT P6SM OVC050=



000
FTUS42 KMFL 252221 AAA
TAFFLL
TAF AMD
KFLL 252221Z 2522/2618 VRB04KT P6SM SKC
     FM260600 26005KT P6SM BKN250
     FM261200 24006KT P6SM OVC050
     FM261500 26015G25KT P6SM OVC050=



000
FTUS42 KMFL 252221 AAA
TAFMIA
TAF AMD
KMIA 252221Z 2522/2618 VRB04KT P6SM SKC
     FM260600 27003KT P6SM BKN250
     FM261200 24006KT P6SM BKN050
     FM261500 26015G25KT P6SM OVC050=



000
FTUS42 KMFL 252221 AAA
TAFAPF
TAF AMD
KAPF 252221Z 2522/2618 VRB04KT P6SM SKC
     FM261200 26015KT P6SM OVC025
     FM261400 27015G25KT P6SM BKN050=



000
FTUS42 KMFL 251741
TAFAPF
TAF
KAPF 251741Z 2518/2618 VRB04KT P6SM SKC
     FM260600 24007KT P6SM BKN250
     FM261200 26013G20KT P6SM OVC025
     FM261400 27016G23KT P6SM BKN050=



000
FTUS42 KMFL 251741
TAFMIA
TAF
KMIA 251741Z 2518/2618 30007KT P6SM FEW250
     FM252000 25004KT P6SM SKC
     FM260600 27003KT P6SM BKN250
     FM261200 24006KT P6SM BKN050
     FM261500 26015G21KT P6SM OVC050=



000
FTUS42 KMFL 251741
TAFFLL
TAF
KFLL 251741Z 2518/2618 VRB06KT P6SM SKC
     FM252000 21005KT P6SM SKC
     FM260600 26003KT P6SM BKN250
     FM261200 24006KT P6SM OVC050
     FM261500 26016G24KT P6SM OVC050=



000
FTUS42 KMFL 251741
TAFPBI
TAF
KPBI 251741Z 2518/2618 VRB05KT P6SM FEW028 SCT250
     FM252000 19004KT P6SM FEW050
     FM260600 25005KT P6SM SCT100 BKN250
     FM261200 22007KT P6SM OVC050
     FM261400 25016G23KT P6SM OVC050=



000
FTUS42 KMFL 251741
TAFPBI
TAF
KPBI 251741Z 2518/2618 VRB05KT P6SM FEW028 SCT250
     FM252000 19004KT P6SM FEW050
     FM260600 25005KT P6SM SCT100 BKN250
     FM261200 22007KT P6SM OVC050
     FM261400 25016G23KT P6SM OVC050=



000
FTUS42 KMFL 251741
TAFMIA
TAF
KMIA 251741Z 2518/2618 30007KT P6SM FEW250
     FM252000 25004KT P6SM SKC
     FM260600 27003KT P6SM BKN250
     FM261200 24006KT P6SM BKN050
     FM261500 26015G21KT P6SM OVC050=



000
FTUS42 KMFL 251741
TAFFLL
TAF
KFLL 251741Z 2518/2618 VRB06KT P6SM SKC
     FM252000 21005KT P6SM SKC
     FM260600 26003KT P6SM BKN250
     FM261200 24006KT P6SM OVC050
     FM261500 26016G24KT P6SM OVC050=



000
FTUS42 KMFL 251741
TAFAPF
TAF
KAPF 251741Z 2518/2618 VRB04KT P6SM SKC
     FM260600 24007KT P6SM BKN250
     FM261200 26013G20KT P6SM OVC025
     FM261400 27016G23KT P6SM BKN050=



000
FTUS42 KMFL 251521 AAA
TAFMIA
TAF AMD
KMIA 251521Z 2515/2612 33009KT P6SM FEW020
     FM252000 22004KT P6SM SKC
     FM260600 27004KT P6SM BKN250
     FM260800 26004KT P6SM BKN050=



000
FTUS42 KMFL 251521 AAA
TAFMIA
TAF AMD
KMIA 251521Z 2515/2612 33009KT P6SM FEW020
     FM252000 22004KT P6SM SKC
     FM260600 27004KT P6SM BKN250
     FM260800 26004KT P6SM BKN050=



000
FTUS42 KMFL 251521 AAA
TAFFLL
TAF AMD
KFLL 251521Z 2515/2612 36008KT P6SM SKC
     FM252000 30004KT P6SM SKC
     FM260600 27004KT P6SM BKN250
     FM260800 27005KT P6SM BKN100=



000
FTUS42 KMFL 251521 AAA
TAFFLL
TAF AMD
KFLL 251521Z 2515/2612 36008KT P6SM SKC
     FM252000 30004KT P6SM SKC
     FM260600 27004KT P6SM BKN250
     FM260800 27005KT P6SM BKN100=



000
FTUS42 KMFL 251520 AAA
TAFPBI
TAF AMD
KPBI 251520Z 2515/2612 32009KT P6SM FEW026 SCT250
     FM252000 20005KT P6SM FEW050
     FM260600 27006KT P6SM BKN250
     FM260800 26007KT P6SM BKN100=



000
FTUS42 KMFL 251520 AAA
TAFPBI
TAF AMD
KPBI 251520Z 2515/2612 32009KT P6SM FEW026 SCT250
     FM252000 20005KT P6SM FEW050
     FM260600 27006KT P6SM BKN250
     FM260800 26007KT P6SM BKN100=



000
FTUS42 KMFL 251140
TAFMIA
TAF
KMIA 251140Z 2512/2612 32006KT P6SM SKC
     FM252000 22004KT P6SM SKC
     FM260600 27004KT P6SM BKN250
     FM260800 26004KT P6SM BKN050=



000
FTUS42 KMFL 251140
TAFPBI
TAF
KPBI 251140Z 2512/2612 32009KT P6SM SKC
     FM252000 20005KT P6SM FEW050
     FM260600 27006KT P6SM BKN250
     FM260800 26007KT P6SM BKN100=



000
FTUS42 KMFL 251140
TAFFLL
TAF
KFLL 251140Z 2512/2612 32005KT P6SM SKC
     FM252000 30004KT P6SM SKC
     FM260600 27004KT P6SM BKN250
     FM260800 27005KT P6SM BKN100=



000
FTUS42 KMFL 251140
TAFAPF
TAF
KAPF 251140Z 2512/2612 07004KT P6SM SKC
     FM251700 27005KT P6SM SCT035
     FM260600 23005KT P6SM BKN100
     FM260700 24008KT P6SM BKN050=



000
FTUS42 KMFL 251140
TAFAPF
TAF
KAPF 251140Z 2512/2612 07004KT P6SM SKC
     FM251700 27005KT P6SM SCT035
     FM260600 23005KT P6SM BKN100
     FM260700 24008KT P6SM BKN050=



000
FTUS42 KMFL 251140
TAFFLL
TAF
KFLL 251140Z 2512/2612 32005KT P6SM SKC
     FM252000 30004KT P6SM SKC
     FM260600 27004KT P6SM BKN250
     FM260800 27005KT P6SM BKN100=



000
FTUS42 KMFL 251140
TAFPBI
TAF
KPBI 251140Z 2512/2612 32009KT P6SM SKC
     FM252000 20005KT P6SM FEW050
     FM260600 27006KT P6SM BKN250
     FM260800 26007KT P6SM BKN100=



000
FTUS42 KMFL 251140
TAFMIA
TAF
KMIA 251140Z 2512/2612 32006KT P6SM SKC
     FM252000 22004KT P6SM SKC
     FM260600 27004KT P6SM BKN250
     FM260800 26004KT P6SM BKN050=



000
FTUS42 KMFL 250900 AAA
TAFMIA
TAF AMD
KMIA 250900Z 2509/2606 32008KT P6SM SKC
     FM252000 26006KT P6SM SKC=



000
FTUS42 KMFL 250900 AAA
TAFPBI
TAF AMD
KPBI 250900Z 2509/2606 30009KT P6SM SKC
     FM252000 22008KT P6SM FEW050=



000
FTUS42 KMFL 250900 AAB
TAFAPF
TAF AMD
KAPF 250900Z 2509/2606 02004KT P6SM SKC
     FM251700 27008KT P6SM SCT035=



000
FTUS42 KMFL 250900 AAA
TAFFLL
TAF AMD
KFLL 250900Z 2509/2606 31007KT P6SM SKC
     FM252000 30008KT P6SM SKC=



000
FTUS42 KMFL 250900 AAA
TAFFLL
TAF AMD
KFLL 250900Z 2509/2606 31007KT P6SM SKC
     FM252000 30008KT P6SM SKC=



000
FTUS42 KMFL 250900 AAA
TAFMIA
TAF AMD
KMIA 250900Z 2509/2606 32008KT P6SM SKC
     FM252000 26006KT P6SM SKC=



000
FTUS42 KMFL 250900 AAA
TAFPBI
TAF AMD
KPBI 250900Z 2509/2606 30009KT P6SM SKC
     FM252000 22008KT P6SM FEW050=



000
FTUS42 KMFL 250900 AAB
TAFAPF
TAF AMD
KAPF 250900Z 2509/2606 02004KT P6SM SKC
     FM251700 27008KT P6SM SCT035=



000
FTUS42 KMFL 250735 AAA
TAFAPF
TAF AMD
KAPF 250735Z 2508/2606 03004KT P6SM SCT027
     FM251200 02005KT P6SM SKC
     FM251700 27008KT P6SM SCT035=



000
FTUS42 KMFL 250735 AAA
TAFAPF
TAF AMD
KAPF 250735Z 2508/2606 03004KT P6SM SCT027
     FM251200 02005KT P6SM SKC
     FM251700 27008KT P6SM SCT035=



000
FTUS42 KMFL 250529
TAFFLL
TAF
KFLL 250529Z 2506/2606 32006KT P6SM SKC
     FM252000 30008KT P6SM SKC=



000
FTUS42 KMFL 250529
TAFPBI
TAF
KPBI 250529Z 2506/2606 29006KT P6SM SKC
     FM252000 22008KT P6SM FEW050=



000
FTUS42 KMFL 250529
TAFMIA
TAF
KMIA 250529Z 2506/2606 31004KT P6SM SKC
     FM252000 26006KT P6SM SKC=



000
FTUS42 KMFL 250529
TAFAPF
TAF
KAPF 250529Z 2506/2606 36004KT P6SM SKC
     FM251200 02005KT P6SM SKC
     FM251700 27008KT P6SM SCT035=



000
FTUS42 KMFL 250529
TAFMIA
TAF
KMIA 250529Z 2506/2606 31004KT P6SM SKC
     FM252000 26006KT P6SM SKC=



000
FTUS42 KMFL 250529
TAFFLL
TAF
KFLL 250529Z 2506/2606 32006KT P6SM SKC
     FM252000 30008KT P6SM SKC=



000
FTUS42 KMFL 250529
TAFPBI
TAF
KPBI 250529Z 2506/2606 29006KT P6SM SKC
     FM252000 22008KT P6SM FEW050=



000
FTUS42 KMFL 250529
TAFAPF
TAF
KAPF 250529Z 2506/2606 36004KT P6SM SKC
     FM251200 02005KT P6SM SKC
     FM251700 27008KT P6SM SCT035=



000
FTUS42 KMFL 250259 AAA
TAFPBI
TAF AMD
KPBI 250259Z 2503/2524 29008KT P6SM SKC
     FM252000 22008KT P6SM FEW050=



000
FTUS42 KMFL 250259 AAA
TAFMIA
TAF AMD
KMIA 250259Z 2503/2524 31006KT P6SM BKN250
     FM252000 26006KT P6SM SKC=



000
FTUS42 KMFL 250259 AAA
TAFMIA
TAF AMD
KMIA 250259Z 2503/2524 31006KT P6SM BKN250
     FM252000 26006KT P6SM SKC=



000
FTUS42 KMFL 250259 AAA
TAFFLL
TAF AMD
KFLL 250259Z 2503/2524 31008KT P6SM FEW250
     FM250600 32008KT P6SM SKC
     FM252000 26008KT P6SM SKC=



000
FTUS42 KMFL 250259 AAA
TAFPBI
TAF AMD
KPBI 250259Z 2503/2524 29008KT P6SM SKC
     FM252000 22008KT P6SM FEW050=



000
FTUS42 KMFL 250259 AAA
TAFAPF
TAF AMD
KAPF 250259Z 2503/2524 34006KT P6SM BKN030
     FM250400 33006KT P6SM SKC
     FM251200 02005KT P6SM SKC
     FM251700 27008KT P6SM SCT035=



000
FTUS42 KMFL 250259 AAA
TAFFLL
TAF AMD
KFLL 250259Z 2503/2524 31008KT P6SM FEW250
     FM250600 32008KT P6SM SKC
     FM252000 26008KT P6SM SKC=



000
FTUS42 KMFL 242337
TAFFLL
TAF
KFLL 242337Z 2500/2524 29012KT P6SM SCT025 SCT250
     FM250600 32008KT P6SM SKC
     FM252000 26008KT P6SM SKC=



000
FTUS42 KMFL 242337
TAFPBI
TAF
KPBI 242337Z 2500/2524 30012KT P6SM SCT035 BKN045
     FM250200 30008KT P6SM SCT045
     FM252000 22008KT P6SM FEW050=



000
FTUS42 KMFL 242337
TAFMIA
TAF
KMIA 242337Z 2500/2524 32010KT P6SM SCT250
     FM250300 31006KT P6SM SKC
     FM252000 26006KT P6SM SKC=



000
FTUS42 KMFL 242337
TAFAPF
TAF
KAPF 242337Z 2500/2524 33010KT P6SM BKN035
     FM250400 33006KT P6SM SKC
     FM251200 02005KT P6SM SKC
     FM251700 27008KT P6SM SCT035=



000
FTUS42 KMFL 242337
TAFAPF
TAF
KAPF 242337Z 2500/2524 33010KT P6SM BKN035
     FM250400 33006KT P6SM SKC
     FM251200 02005KT P6SM SKC
     FM251700 27008KT P6SM SCT035=



000
FTUS42 KMFL 242337
TAFMIA
TAF
KMIA 242337Z 2500/2524 32010KT P6SM SCT250
     FM250300 31006KT P6SM SKC
     FM252000 26006KT P6SM SKC=



000
FTUS42 KMFL 242337
TAFPBI
TAF
KPBI 242337Z 2500/2524 30012KT P6SM SCT035 BKN045
     FM250200 30008KT P6SM SCT045
     FM252000 22008KT P6SM FEW050=



000
FTUS42 KMFL 242337
TAFFLL
TAF
KFLL 242337Z 2500/2524 29012KT P6SM SCT025 SCT250
     FM250600 32008KT P6SM SKC
     FM252000 26008KT P6SM SKC=



000
FTUS42 KMFL 242159 AAD
TAFMIA
TAF AMD
KMIA 242159Z 2422/2518 31008KT P6SM BKN025 BKN060 BKN250
     FM242300 32010KT P6SM SCT250=



000
FTUS42 KMFL 242159 AAC
TAFAPF
TAF AMD
KAPF 242159Z 2422/2518 32015G25KT P6SM BKN035 BKN200
     FM242300 35006KT P6SM SCT250=



000
FTUS42 KMFL 242159 AAC
TAFFLL
TAF AMD
KFLL 242159Z 2422/2518 29012KT P6SM FEW025 FEW060 BKN250
     FM242300 30010KT P6SM SCT250=



000
FTUS42 KMFL 242159 AAC
TAFAPF
TAF AMD
KAPF 242159Z 2422/2518 32015G25KT P6SM BKN035 BKN200
     FM242300 35006KT P6SM SCT250=



000
FTUS42 KMFL 242159 AAB
TAFPBI
TAF AMD
KPBI 242159Z 2422/2518 29015KT P6SM SCT035 BKN050
     FM250000 31010KT P6SM SCT250=



000
FTUS42 KMFL 242159 AAC
TAFFLL
TAF AMD
KFLL 242159Z 2422/2518 29012KT P6SM FEW025 FEW060 BKN250
     FM242300 30010KT P6SM SCT250=



000
FTUS42 KMFL 242159 AAB
TAFPBI
TAF AMD
KPBI 242159Z 2422/2518 29015KT P6SM SCT035 BKN050
     FM250000 31010KT P6SM SCT250=



000
FTUS42 KMFL 242159 AAD
TAFMIA
TAF AMD
KMIA 242159Z 2422/2518 31008KT P6SM BKN025 BKN060 BKN250
     FM242300 32010KT P6SM SCT250=



000
FTUS42 KMFL 242052 AAC
TAFMIA
TAF AMD
KMIA 242052Z 2421/2518 29010KT P6SM SCT025 OVC040
     FM242300 32010KT P6SM SCT250=



000
FTUS42 KMFL 242052 AAC
TAFMIA
TAF AMD
KMIA 242052Z 2421/2518 29010KT P6SM SCT025 OVC040
     FM242300 32010KT P6SM SCT250=



000
FTUS42 KMFL 242011 AAB
TAFMIA
TAF AMD
KMIA 242011Z 2420/2518 29010KT P6SM BKN025 OVC040
     FM242300 32010KT P6SM SCT250=



000
FTUS42 KMFL 242011 AAA
TAFPBI
TAF AMD
KPBI 242011Z 2420/2518 29015KT P6SM BKN025 BKN050
     FM250000 31010KT P6SM SCT250=



000
FTUS42 KMFL 242011 AAB
TAFAPF
TAF AMD
KAPF 242011Z 2420/2518 31015G25KT P6SM SCT035 BKN200
     FM242300 35006KT P6SM SCT250=



000
FTUS42 KMFL 242011 AAB
TAFFLL
TAF AMD
KFLL 242011Z 2420/2518 29012KT P6SM SCT025 BKN045
     FM242300 30010KT P6SM SCT250=



000
FTUS42 KMFL 241850 AAA
TAFAPF
TAF AMD
KAPF 241850Z 2419/2518 31014G26KT P6SM BKN035 OVC060
     FM242300 35006KT P6SM SCT250=



000
FTUS42 KMFL 241850 AAA
TAFAPF
TAF AMD
KAPF 241850Z 2419/2518 31014G26KT P6SM BKN035 OVC060
     FM242300 35006KT P6SM SCT250=



000
FTUS42 KMFL 241848 AAA
TAFFLL
TAF AMD
KFLL 241848Z 2419/2518 31015G24KT P6SM -RA SCT010 OVC023
     FM242000 30012G23KT P6SM SCT015 BKN040
     FM242300 30011KT P6SM SCT250=



000
FTUS42 KMFL 241848 AAA
TAFFLL
TAF AMD
KFLL 241848Z 2419/2518 31015G24KT P6SM -RA SCT010 OVC023
     FM242000 30012G23KT P6SM SCT015 BKN040
     FM242300 30011KT P6SM SCT250=



000
FTUS42 KMFL 241848 AAA
TAFMIA
TAF AMD
KMIA 241848Z 2419/2518 28012G23KT P6SM VCSH SCT012 BKN019 OVC090
     FM242000 30019G25KT P6SM SCT030 OVC050
     FM242300 32010KT P6SM SCT250=



000
FTUS42 KMFL 241721
TAFFLL
TAF
KFLL 241721Z 2418/2518 28018G27KT P6SM VCSH OVC028
     FM241900 29012G23KT P6SM SCT015 BKN040
     FM242300 30011KT P6SM SCT250=



000
FTUS42 KMFL 241721
TAFAPF
TAF
KAPF 241721Z 2418/2518 31015G23KT P6SM OVC024
     FM242000 31014G23KT P6SM SCT025 BKN050
     FM242300 35006KT P6SM SCT250=



000
FTUS42 KMFL 241721
TAFPBI
TAF
KPBI 241721Z 2418/2518 28018G25KT 5SM -RA BKN011 OVC024
     FM241900 29020KT P6SM SCT015 OVC040
     FM250000 31010KT P6SM SCT250=



000
FTUS42 KMFL 241721
TAFMIA
TAF
KMIA 241721Z 2418/2518 28017G25KT P6SM VCSH FEW020 SCT080 OVC250
      TEMPO 2418/2420 BKN022
     FM242000 29019G25KT P6SM SCT030 OVC050
     FM242300 32010KT P6SM SCT250=



000
FTUS42 KMFL 241721
TAFPBI
TAF
KPBI 241721Z 2418/2518 28018G25KT 5SM -RA BKN011 OVC024
     FM241900 29020KT P6SM SCT015 OVC040
     FM250000 31010KT P6SM SCT250=



000
FTUS42 KMFL 241721
TAFFLL
TAF
KFLL 241721Z 2418/2518 28018G27KT P6SM VCSH OVC028
     FM241900 29012G23KT P6SM SCT015 BKN040
     FM242300 30011KT P6SM SCT250=



000
FTUS42 KMFL 241721
TAFMIA
TAF
KMIA 241721Z 2418/2518 28017G25KT P6SM VCSH FEW020 SCT080 OVC250
      TEMPO 2418/2420 BKN022
     FM242000 29019G25KT P6SM SCT030 OVC050
     FM242300 32010KT P6SM SCT250=



000
FTUS42 KMFL 241721
TAFAPF
TAF
KAPF 241721Z 2418/2518 31015G23KT P6SM OVC024
     FM242000 31014G23KT P6SM SCT025 BKN050
     FM242300 35006KT P6SM SCT250=



000
FTUS42 KMFL 241501 AAC
TAFAPF
TAF AMD
KAPF 241501Z 2415/2512 30010G20KT P6SM FEW010 BKN017 OVC023
     FM241600 30013G23KT P6SM BKN023 OVC050
     FM241800 31019G26KT P6SM SCT025 BKN050
     FM242300 32011KT P6SM SCT250=



000
FTUS42 KMFL 241501 AAC
TAFAPF
TAF AMD
KAPF 241501Z 2415/2512 30010G20KT P6SM FEW010 BKN017 OVC023
     FM241600 30013G23KT P6SM BKN023 OVC050
     FM241800 31019G26KT P6SM SCT025 BKN050
     FM242300 32011KT P6SM SCT250=



000
FTUS42 KMFL 241442 AAB
TAFAPF
TAF AMD
KAPF 241442Z 2415/2512 31010G20KT 2SM -RA BKN007 OVC060
     FM241500 31015G25KT 5SM -RA BR BKN013 OVC060
     FM241600 30016G25KT P6SM OVC050
     FM242300 32011KT P6SM SCT250=



000
FTUS42 KMFL 241442 AAB
TAFAPF
TAF AMD
KAPF 241442Z 2415/2512 31010G20KT 2SM -RA BKN007 OVC060
     FM241500 31015G25KT 5SM -RA BR BKN013 OVC060
     FM241600 30016G25KT P6SM OVC050
     FM242300 32011KT P6SM SCT250=



000
FTUS42 KMFL 241405 AAA
TAFFLL
TAF AMD
KFLL 241405Z 2414/2512 22015G26KT P6SM VCSH SCT020 BKN080 OVC250
     FM242000 29012G23KT P6SM BKN040
     FM242300 30011KT P6SM SCT250=



000
FTUS42 KMFL 241405 AAA
TAFMIA
TAF AMD
KMIA 241405Z 2414/2512 20015G25KT P6SM VCSH FEW020 SCT080 OVC250
     FM241800 29019G25KT P6SM SCT030 OVC050
     FM242300 32010KT P6SM SCT250=



000
FTUS42 KMFL 241405 AAA
TAFAPF
TAF AMD
KAPF 241405Z 2414/2512 29015G25KT 5SM -RA BR BKN013 OVC060
     FM241600 30016G25KT P6SM OVC050
     FM242300 32011KT P6SM SCT250=



000
FTUS42 KMFL 241405 AAA
TAFMIA
TAF AMD
KMIA 241405Z 2414/2512 20015G25KT P6SM VCSH FEW020 SCT080 OVC250
     FM241800 29019G25KT P6SM SCT030 OVC050
     FM242300 32010KT P6SM SCT250=



000
FTUS42 KMFL 241405 AAA
TAFPBI
TAF AMD
KPBI 241405Z 2414/2512 22015G25KT P6SM VCSH SCT020 OVC220
      TEMPO 2414/2415 BKN017
     FM241900 29020KT P6SM OVC040
     FM250000 31013KT P6SM SCT250=



000
FTUS42 KMFL 241405 AAA
TAFPBI
TAF AMD
KPBI 241405Z 2414/2512 22015G25KT P6SM VCSH SCT020 OVC220
      TEMPO 2414/2415 BKN017
     FM241900 29020KT P6SM OVC040
     FM250000 31013KT P6SM SCT250=



000
FTUS42 KMFL 241405 AAA
TAFAPF
TAF AMD
KAPF 241405Z 2414/2512 29015G25KT 5SM -RA BR BKN013 OVC060
     FM241600 30016G25KT P6SM OVC050
     FM242300 32011KT P6SM SCT250=



000
FTUS42 KMFL 241405 AAA
TAFFLL
TAF AMD
KFLL 241405Z 2414/2512 22015G26KT P6SM VCSH SCT020 BKN080 OVC250
     FM242000 29012G23KT P6SM BKN040
     FM242300 30011KT P6SM SCT250=



000
FTUS42 KMFL 241125
TAFMIA
TAF
KMIA 241125Z 2412/2512 17007KT P6SM FEW025 BKN250
     FM241500 22012KT P6SM VCSH BKN070
     FM241700 26015G25KT P6SM VCSH BKN030 OVC050
     FM242300 32010KT P6SM SCT080=



000
FTUS42 KMFL 241125
TAFPBI
TAF
KPBI 241125Z 2412/2512 18011G20KT P6SM OVC250
     FM241500 21015G25KT P6SM VCSH OVC050
     FM241900 29020KT P6SM OVC040
     FM250000 31013KT P6SM SCT250=



000
FTUS42 KMFL 241125
TAFPBI
TAF
KPBI 241125Z 2412/2512 18011G20KT P6SM OVC250
     FM241500 21015G25KT P6SM VCSH OVC050
     FM241900 29020KT P6SM OVC040
     FM250000 31013KT P6SM SCT250=



000
FTUS42 KMFL 241125
TAFFLL
TAF
KFLL 241125Z 2412/2512 18009KT P6SM FEW030
     FM241600 24015G25KT P6SM VCSH OVC040
     FM242000 29012G23KT P6SM VCSH BKN040
     FM242300 30011KT P6SM SCT250=



000
FTUS42 KMFL 241125
TAFAPF
TAF
KAPF 241125Z 2412/2512 19018G24KT 5SM -RA SCT025 SCT100 BKN120
     FM241300 22018KT P6SM VCSH SCT025 BKN120
     FM241500 30015G25KT P6SM VCSH OVC030
     FM241800 30016G25KT P6SM OVC050
     FM242300 32011KT P6SM SCT250=



000
FTUS42 KMFL 241125
TAFFLL
TAF
KFLL 241125Z 2412/2512 18009KT P6SM FEW030
     FM241600 24015G25KT P6SM VCSH OVC040
     FM242000 29012G23KT P6SM VCSH BKN040
     FM242300 30011KT P6SM SCT250=



000
FTUS42 KMFL 241125
TAFMIA
TAF
KMIA 241125Z 2412/2512 17007KT P6SM FEW025 BKN250
     FM241500 22012KT P6SM VCSH BKN070
     FM241700 26015G25KT P6SM VCSH BKN030 OVC050
     FM242300 32010KT P6SM SCT080=



000
FTUS42 KMFL 241125
TAFAPF
TAF
KAPF 241125Z 2412/2512 19018G24KT 5SM -RA SCT025 SCT100 BKN120
     FM241300 22018KT P6SM VCSH SCT025 BKN120
     FM241500 30015G25KT P6SM VCSH OVC030
     FM241800 30016G25KT P6SM OVC050
     FM242300 32011KT P6SM SCT250=



000
FTUS42 KMFL 241120
TAFAPF
TAF
KAPF 241120Z 2412/2512 19016KT 5SM -TSRA OVC070CB
      TEMPO 2412/2413 VRB15G30KT 4SM TSRA OVC050CB
     FM241500 30015G25KT P6SM VCSH OVC030
     FM241800 30016G25KT P6SM OVC050
     FM242300 32011KT P6SM SCT250=



000
FTUS42 KMFL 241120
TAFMIA
TAF
KMIA 241120Z 2412/2512 17007KT P6SM FEW025 BKN250
     FM241500 22012KT P6SM VCSH BKN070
     FM241700 26015G25KT P6SM VCSH BKN030 OVC050
     FM242300 32010KT P6SM SCT080=



000
FTUS42 KMFL 241120
TAFFLL
TAF
KFLL 241120Z 2412/2512 18009KT P6SM FEW030
     FM241600 24015G25KT P6SM VCSH OVC040
     FM242000 29012G23KT P6SM VCSH BKN040
     FM242300 30011KT P6SM SCT250=



000
FTUS42 KMFL 241120
TAFPBI
TAF
KPBI 241120Z 2412/2512 18011G20KT P6SM OVC250
     FM241500 21015G25KT P6SM VCSH OVC050
     FM241900 29020KT P6SM OVC040
     FM250000 31013KT P6SM SCT250=



000
FTUS42 KMFL 241120
TAFMIA
TAF
KMIA 241120Z 2412/2512 17007KT P6SM FEW025 BKN250
     FM241500 22012KT P6SM VCSH BKN070
     FM241700 26015G25KT P6SM VCSH BKN030 OVC050
     FM242300 32010KT P6SM SCT080=



000
FTUS42 KMFL 241120
TAFFLL
TAF
KFLL 241120Z 2412/2512 18009KT P6SM FEW030
     FM241600 24015G25KT P6SM VCSH OVC040
     FM242000 29012G23KT P6SM VCSH BKN040
     FM242300 30011KT P6SM SCT250=



000
FTUS42 KMFL 241120
TAFAPF
TAF
KAPF 241120Z 2412/2512 19016KT 5SM -TSRA OVC070CB
      TEMPO 2412/2413 VRB15G30KT 4SM TSRA OVC050CB
     FM241500 30015G25KT P6SM VCSH OVC030
     FM241800 30016G25KT P6SM OVC050
     FM242300 32011KT P6SM SCT250=



000
FTUS42 KMFL 241120
TAFPBI
TAF
KPBI 241120Z 2412/2512 18011G20KT P6SM OVC250
     FM241500 21015G25KT P6SM VCSH OVC050
     FM241900 29020KT P6SM OVC040
     FM250000 31013KT P6SM SCT250=



000
FTUS42 KMFL 241102 AAB
TAFPBI
TAF AMD
KPBI 241102Z 2411/2506 18013G22KT P6SM FEW040 OVC250
     FM241300 21015G30KT P6SM -SHRA BKN045
     FM241700 29020KT P6SM OVC040=



000
FTUS42 KMFL 241102 AAB
TAFPBI
TAF AMD
KPBI 241102Z 2411/2506 18013G22KT P6SM FEW040 OVC250
     FM241300 21015G30KT P6SM -SHRA BKN045
     FM241700 29020KT P6SM OVC040=



000
FTUS42 KMFL 241017 AAB
TAFAPF
TAF AMD
KAPF 241017Z 2410/2506 19016KT 5SM SHRA OVC080
      TEMPO 2411/2413 VRB15G30KT 4SM TSRA OVC050CB
     FM241500 30015G25KT P6SM VCSH SCT025 BKN050
     FM241800 30016G25KT P6SM OVC050=



000
FTUS42 KMFL 241017 AAB
TAFAPF
TAF AMD
KAPF 241017Z 2410/2506 19016KT 5SM SHRA OVC080
      TEMPO 2411/2413 VRB15G30KT 4SM TSRA OVC050CB
     FM241500 30015G25KT P6SM VCSH SCT025 BKN050
     FM241800 30016G25KT P6SM OVC050=



000
FTUS42 KMFL 240914 AAA
TAFMIA
TAF AMD
KMIA 240914Z 2409/2506 17007KT P6SM FEW025 BKN250
     FM241300 21012KT P6SM VCSH BKN050
     FM241500 23015G30KT P6SM VCSH OVC040
     FM241800 29015G25KT P6SM VCSH BKN040=



000
FTUS42 KMFL 240914 AAA
TAFFLL
TAF AMD
KFLL 240914Z 2409/2506 18009KT P6SM FEW030
     FM241300 22015KT P6SM VCSH BKN070
     FM241500 24015G30KT P6SM VCSH OVC040
     FM241800 29015G25KT P6SM VCSH BKN040=



000
FTUS42 KMFL 240914 AAA
TAFPBI
TAF AMD
KPBI 240914Z 2409/2506 19009KT P6SM OVC250
     FM241300 21015G30KT P6SM -SHRA BKN045
     FM241700 29020KT P6SM OVC040=



000
FTUS42 KMFL 240914 AAA
TAFMIA
TAF AMD
KMIA 240914Z 2409/2506 17007KT P6SM FEW025 BKN250
     FM241300 21012KT P6SM VCSH BKN050
     FM241500 23015G30KT P6SM VCSH OVC040
     FM241800 29015G25KT P6SM VCSH BKN040=



000
FTUS42 KMFL 240914 AAA
TAFFLL
TAF AMD
KFLL 240914Z 2409/2506 18009KT P6SM FEW030
     FM241300 22015KT P6SM VCSH BKN070
     FM241500 24015G30KT P6SM VCSH OVC040
     FM241800 29015G25KT P6SM VCSH BKN040=



000
FTUS42 KMFL 240914 AAA
TAFPBI
TAF AMD
KPBI 240914Z 2409/2506 19009KT P6SM OVC250
     FM241300 21015G30KT P6SM -SHRA BKN045
     FM241700 29020KT P6SM OVC040=



000
FTUS42 KMFL 240914 AAA
TAFAPF
TAF AMD
KAPF 240914Z 2409/2506 18012KT P6SM VCSH SCT080 OVC100
     FM241200 25015G25KT P6SM VCTS SCT025CB BKN030 OVC150
     FM241500 30015G25KT P6SM VCSH SCT025 BKN050
     FM241800 30016G25KT P6SM OVC050=



000
FTUS42 KMFL 240914 AAA
TAFAPF
TAF AMD
KAPF 240914Z 2409/2506 18012KT P6SM VCSH SCT080 OVC100
     FM241200 25015G25KT P6SM VCTS SCT025CB BKN030 OVC150
     FM241500 30015G25KT P6SM VCSH SCT025 BKN050
     FM241800 30016G25KT P6SM OVC050=



000
FTUS42 KMFL 240914 AAA
TAFPBI
TAF AMD
KPBI 240914Z 2409/2506 19009KT P6SM OVC250
     FM241300 21015G30KT P6SM -SHRA BKN045
     FM241700 29020KT P6SM OVC040=



000
FTUS42 KMFL 240914 AAA
TAFMIA
TAF AMD
KMIA 240914Z 2409/2506 17007KT P6SM FEW025 BKN250
     FM241300 21012KT P6SM VCSH BKN050
     FM241500 23015G30KT P6SM VCSH OVC040
     FM241800 29015G25KT P6SM VCSH BKN040=



000
FTUS42 KMFL 240914 AAA
TAFFLL
TAF AMD
KFLL 240914Z 2409/2506 18009KT P6SM FEW030
     FM241300 22015KT P6SM VCSH BKN070
     FM241500 24015G30KT P6SM VCSH OVC040
     FM241800 29015G25KT P6SM VCSH BKN040=



000
FTUS42 KMFL 240914 AAA
TAFMIA
TAF AMD
KMIA 240914Z 2409/2506 17007KT P6SM FEW025 BKN250
     FM241300 21012KT P6SM VCSH BKN050
     FM241500 23015G30KT P6SM VCSH OVC040
     FM241800 29015G25KT P6SM VCSH BKN040=



000
FTUS42 KMFL 240914 AAA
TAFPBI
TAF AMD
KPBI 240914Z 2409/2506 19009KT P6SM OVC250
     FM241300 21015G30KT P6SM -SHRA BKN045
     FM241700 29020KT P6SM OVC040=



000
FTUS42 KMFL 240914 AAA
TAFFLL
TAF AMD
KFLL 240914Z 2409/2506 18009KT P6SM FEW030
     FM241300 22015KT P6SM VCSH BKN070
     FM241500 24015G30KT P6SM VCSH OVC040
     FM241800 29015G25KT P6SM VCSH BKN040=



000
FTUS42 KMFL 240914 AAA
TAFAPF
TAF AMD
KAPF 240914Z 2409/2506 18012KT P6SM VCSH SCT080 OVC100
     FM241200 25015G25KT P6SM VCTS SCT025CB BKN030 OVC150
     FM241500 30015G25KT P6SM VCSH SCT025 BKN050
     FM241800 30016G25KT P6SM OVC050=



000
FTUS42 KMFL 240914 AAA
TAFAPF
TAF AMD
KAPF 240914Z 2409/2506 18012KT P6SM VCSH SCT080 OVC100
     FM241200 25015G25KT P6SM VCTS SCT025CB BKN030 OVC150
     FM241500 30015G25KT P6SM VCSH SCT025 BKN050
     FM241800 30016G25KT P6SM OVC050=



000
FTUS42 KMFL 240540
TAFPBI
TAF
KPBI 240540Z 2406/2506 17008KT P6SM SCT035 SCT250
     FM241300 21015G30KT P6SM -SHRA SCT025 BKN045
     FM241700 29020KT P6SM OVC025=



000
FTUS42 KMFL 240540
TAFPBI
TAF
KPBI 240540Z 2406/2506 17008KT P6SM SCT035 SCT250
     FM241300 21015G30KT P6SM -SHRA SCT025 BKN045
     FM241700 29020KT P6SM OVC025=



000
FTUS42 KMFL 240540
TAFFLL
TAF
KFLL 240540Z 2406/2506 16008KT P6SM BKN250
     FM241300 22015KT P6SM VCSH BKN035
     FM241500 24015G30KT P6SM VCSH SCT015 BKN040
     FM241800 29015G25KT P6SM VCSH BKN030=



000
FTUS42 KMFL 240540
TAFMIA
TAF
KMIA 240540Z 2406/2506 14008KT P6SM SCT025 BKN250
     FM241300 21012KT P6SM VCSH SCT025 BKN040
     FM241500 23015G30KT P6SM VCSH SCT015 BKN050
     FM241800 29015G25KT P6SM VCSH BKN040=



000
FTUS42 KMFL 240540
TAFMIA
TAF
KMIA 240540Z 2406/2506 14008KT P6SM SCT025 BKN250
     FM241300 21012KT P6SM VCSH SCT025 BKN040
     FM241500 23015G30KT P6SM VCSH SCT015 BKN050
     FM241800 29015G25KT P6SM VCSH BKN040=



000
FTUS42 KMFL 240540
TAFAPF
TAF
KAPF 240540Z 2406/2506 15010KT P6SM BKN250
     FM240600 17010KT P6SM VCTS SCT030CB BKN080 OVC250
     FM240900 20010KT P6SM VCTS SCT025CB BKN030 OVC200
     FM241200 25015G25KT P6SM VCTS SCT025CB BKN030 OVC150
     FM241500 30015G25KT P6SM VCSH SCT025 BKN050
     FM241800 30016G25KT P6SM OVC050=



000
FTUS42 KMFL 240540
TAFFLL
TAF
KFLL 240540Z 2406/2506 16008KT P6SM BKN250
     FM241300 22015KT P6SM VCSH BKN035
     FM241500 24015G30KT P6SM VCSH SCT015 BKN040
     FM241800 29015G25KT P6SM VCSH BKN030=



000
FTUS42 KMFL 240540
TAFAPF
TAF
KAPF 240540Z 2406/2506 15010KT P6SM BKN250
     FM240600 17010KT P6SM VCTS SCT030CB BKN080 OVC250
     FM240900 20010KT P6SM VCTS SCT025CB BKN030 OVC200
     FM241200 25015G25KT P6SM VCTS SCT025CB BKN030 OVC150
     FM241500 30015G25KT P6SM VCSH SCT025 BKN050
     FM241800 30016G25KT P6SM OVC050=



000
FTUS42 KMFL 240254 AAA
TAFFLL
TAF AMD
KFLL 240254Z 2403/2424 16008KT P6SM BKN250
     FM241300 22015KT P6SM VCSH BKN035
     FM241500 24015G30KT P6SM VCSH SCT015 BKN025
     FM241800 29015G25KT P6SM VCSH BKN025=



000
FTUS42 KMFL 240254 AAA
TAFMIA
TAF AMD
KMIA 240254Z 2403/2424 14008KT P6SM SCT025 BKN250
     FM241300 21012KT P6SM VCSH SCT025 BKN035
     FM241500 23015G30KT P6SM VCSH SCT015 BKN025
     FM241800 29015G25KT P6SM VCSH BKN025=



000
FTUS42 KMFL 240254 AAA
TAFPBI
TAF AMD
KPBI 240254Z 2403/2424 17008KT P6SM SCT035 SCT250
     FM241300 21015G30KT P6SM -SHRA SCT025 BKN045
     FM241700 29020KT P6SM -SHRA OVC022=



000
FTUS42 KMFL 240254 AAA
TAFMIA
TAF AMD
KMIA 240254Z 2403/2424 14008KT P6SM SCT025 BKN250
     FM241300 21012KT P6SM VCSH SCT025 BKN035
     FM241500 23015G30KT P6SM VCSH SCT015 BKN025
     FM241800 29015G25KT P6SM VCSH BKN025=



000
FTUS42 KMFL 240254 AAA
TAFFLL
TAF AMD
KFLL 240254Z 2403/2424 16008KT P6SM BKN250
     FM241300 22015KT P6SM VCSH BKN035
     FM241500 24015G30KT P6SM VCSH SCT015 BKN025
     FM241800 29015G25KT P6SM VCSH BKN025=



000
FTUS42 KMFL 240254 AAA
TAFAPF
TAF AMD

0=



000
FTUS42 KMFL 240254 AAA
TAFAPF
TAF AMD
KAPF 240254Z 2403/2424 15010KT P6SM BKN250
     FM240600 17010KT P6SM VCTS SCT030CB BKN080 OVC250
     FM240900 20010KT P6SM VCTS SCT025CB BKN030 OVC200
     FM241200 25015G25KT P6SM VCTS SCT025CB BKN030 OVC150
     FM241500 30015G25KT P6SM VCSH SCT025 BKN050=



000
FTUS42 KMFL 240254 AAA
TAFPBI
TAF AMD
KPBI 240254Z 2403/2424 17008KT P6SM SCT035 SCT250
     FM241300 21015G30KT P6SM -SHRA SCT025 BKN045
     FM241700 29020KT P6SM -SHRA OVC022=



000
FTUS42 KMFL 232347
TAFPBI
TAF
KPBI 232347Z 2400/2424 15015KT P6SM SCT060 BKN250
     FM240100 16012KT P6SM SCT040 BKN250
     FM241300 21015G30KT P6SM -SHRA SCT025 BKN045
     FM241700 29020KT P6SM -SHRA OVC022=



000
FTUS42 KMFL 232347
TAFFLL
TAF
KFLL 232347Z 2400/2424 16010KT P6SM SCT035 BKN250
     FM241300 22015KT P6SM VCSH BKN035
     FM241500 24015G30KT P6SM VCSH SCT015 BKN025
     FM241800 29015G25KT P6SM VCSH BKN025=



000
FTUS42 KMFL 232347
TAFMIA
TAF
KMIA 232347Z 2400/2424 14010KT P6SM FEW030 BKN250
     FM241300 21012KT P6SM VCSH SCT025 BKN035
     FM241500 23015G30KT P6SM VCSH SCT015 BKN025
     FM241800 29015G25KT P6SM VCSH BKN025=



000
FTUS42 KMFL 232347
TAFAPF
TAF
KAPF 232347Z 2400/2424 15010KT P6SM BKN250
     FM240600 17010KT P6SM VCTS SCT030CB BKN080 OVC250
     FM240900 20010KT P6SM VCTS SCT025CB BKN030 OVC200
     FM241200 25015G25KT P6SM VCTS SCT025CB BKN030 OVC150
     FM241500 30015G25KT P6SM VCSH SCT025 BKN050=



000
FTUS42 KMFL 232347
TAFPBI
TAF
KPBI 232347Z 2400/2424 15015KT P6SM SCT060 BKN250
     FM240100 16012KT P6SM SCT040 BKN250
     FM241300 21015G30KT P6SM -SHRA SCT025 BKN045
     FM241700 29020KT P6SM -SHRA OVC022=



000
FTUS42 KMFL 232347
TAFFLL
TAF
KFLL 232347Z 2400/2424 16010KT P6SM SCT035 BKN250
     FM241300 22015KT P6SM VCSH BKN035
     FM241500 24015G30KT P6SM VCSH SCT015 BKN025
     FM241800 29015G25KT P6SM VCSH BKN025=



000
FTUS42 KMFL 232347
TAFMIA
TAF
KMIA 232347Z 2400/2424 14010KT P6SM FEW030 BKN250
     FM241300 21012KT P6SM VCSH SCT025 BKN035
     FM241500 23015G30KT P6SM VCSH SCT015 BKN025
     FM241800 29015G25KT P6SM VCSH BKN025=



000
FTUS42 KMFL 232347
TAFAPF
TAF
KAPF 232347Z 2400/2424 15010KT P6SM BKN250
     FM240600 17010KT P6SM VCTS SCT030CB BKN080 OVC250
     FM240900 20010KT P6SM VCTS SCT025CB BKN030 OVC200
     FM241200 25015G25KT P6SM VCTS SCT025CB BKN030 OVC150
     FM241500 30015G25KT P6SM VCSH SCT025 BKN050=



000
FTUS42 KMFL 232154 AAB
TAFFLL
TAF AMD
KFLL 232154Z 2322/2418 16010KT P6SM SCT030 BKN045
     FM240100 16010KT P6SM SCT040 BKN250
     FM241500 23015G25KT P6SM VCSH SCT025 BKN050=



000
FTUS42 KMFL 232154 AAB
TAFPBI
TAF AMD
KPBI 232154Z 2322/2418 14012KT P6SM SCT030 BKN045 BKN250
     FM240100 16012KT P6SM SCT040 BKN250
     FM241300 21015G25KT P6SM VCSH SCT025 BKN050=



000
FTUS42 KMFL 232154 AAB
TAFMIA
TAF AMD
KMIA 232154Z 2322/2418 14010G20KT P6SM SCT030 SCT045 BKN250
     FM240100 14010KT P6SM SCT040 BKN250
     FM241500 21015G25KT P6SM VCSH SCT025 BKN050=



000
FTUS42 KMFL 232154 AAB
TAFPBI
TAF AMD
KPBI 232154Z 2322/2418 14012KT P6SM SCT030 BKN045 BKN250
     FM240100 16012KT P6SM SCT040 BKN250
     FM241300 21015G25KT P6SM VCSH SCT025 BKN050=



000
FTUS42 KMFL 232154 AAB
TAFFLL
TAF AMD
KFLL 232154Z 2322/2418 16010KT P6SM SCT030 BKN045
     FM240100 16010KT P6SM SCT040 BKN250
     FM241500 23015G25KT P6SM VCSH SCT025 BKN050=



000
FTUS42 KMFL 232154 AAB
TAFFLL
TAF AMD
KFLL 232154Z 2322/2418 16010KT P6SM SCT030 BKN045
     FM240100 16010KT P6SM SCT040 BKN250
     FM241500 23015G25KT P6SM VCSH SCT025 BKN050=



000
FTUS42 KMFL 232154 AAB
TAFAPF
TAF AMD
KAPF 232154Z 2322/2418 16015KT P6SM BKN250
     FM232300 14008KT P6SM SCT050 BKN250
     FM240600 17008KT P6SM VCTS SCT030CB BKN100 BKN250
     FM241300 25015G25KT P6SM VCSH SCT025 BKN050=



000
FTUS42 KMFL 232154 AAB
TAFMIA
TAF AMD
KMIA 232154Z 2322/2418 14010G20KT P6SM SCT030 SCT045 BKN250
     FM240100 14010KT P6SM SCT040 BKN250
     FM241500 21015G25KT P6SM VCSH SCT025 BKN050=



000
FTUS42 KMFL 232154 AAB
TAFPBI
TAF AMD
KPBI 232154Z 2322/2418 14012KT P6SM SCT030 BKN045 BKN250
     FM240100 16012KT P6SM SCT040 BKN250
     FM241300 21015G25KT P6SM VCSH SCT025 BKN050=



000
FTUS42 KMFL 232154 AAB
TAFAPF
TAF AMD
KAPF 232154Z 2322/2418 16015KT P6SM BKN250
     FM232300 14008KT P6SM SCT050 BKN250
     FM240600 17008KT P6SM VCTS SCT030CB BKN100 BKN250
     FM241300 25015G25KT P6SM VCSH SCT025 BKN050=



000
FTUS42 KMFL 232154 AAB
TAFMIA
TAF AMD
KMIA 232154Z 2322/2418 14010G20KT P6SM SCT030 SCT045 BKN250
     FM240100 14010KT P6SM SCT040 BKN250
     FM241500 21015G25KT P6SM VCSH SCT025 BKN050=



000
FTUS42 KMFL 232154 AAB
TAFAPF
TAF AMD
KAPF 232154Z 2322/2418 16015KT P6SM BKN250
     FM232300 14008KT P6SM SCT050 BKN250
     FM240600 17008KT P6SM VCTS SCT030CB BKN100 BKN250
     FM241300 25015G25KT P6SM VCSH SCT025 BKN050=



000
FTUS42 KMFL 232154 AAB
TAFFLL
TAF AMD
KFLL 232154Z 2322/2418 16010KT P6SM SCT030 BKN045
     FM240100 16010KT P6SM SCT040 BKN250
     FM241500 23015G25KT P6SM VCSH SCT025 BKN050=



000
FTUS42 KMFL 232154 AAB
TAFMIA
TAF AMD
KMIA 232154Z 2322/2418 14010G20KT P6SM SCT030 SCT045 BKN250
     FM240100 14010KT P6SM SCT040 BKN250
     FM241500 21015G25KT P6SM VCSH SCT025 BKN050=



000
FTUS42 KMFL 232154 AAB
TAFPBI
TAF AMD
KPBI 232154Z 2322/2418 14012KT P6SM SCT030 BKN045 BKN250
     FM240100 16012KT P6SM SCT040 BKN250
     FM241300 21015G25KT P6SM VCSH SCT025 BKN050=



000
FTUS42 KMFL 232154 AAB
TAFAPF
TAF AMD
KAPF 232154Z 2322/2418 16015KT P6SM BKN250
     FM232300 14008KT P6SM SCT050 BKN250
     FM240600 17008KT P6SM VCTS SCT030CB BKN100 BKN250
     FM241300 25015G25KT P6SM VCSH SCT025 BKN050=



000
FTUS42 KMFL 231744 AAA
TAFPBI
TAF AMD
KPBI 231744Z 2318/2418 15015KT P6SM SCT030 SCT040 BKN250
     FM240100 16012KT P6SM SCT040 BKN250
     FM241300 21017G28KT P6SM VCSH SCT025 BKN050=



000
FTUS42 KMFL 231744 AAA
TAFFLL
TAF AMD
KFLL 231744Z 2318/2418 14015KT P6SM SCT030 BKN250
     FM240100 16010KT P6SM SCT040 BKN250
     FM241500 23017G28KT P6SM VCSH SCT025 BKN050=



000
FTUS42 KMFL 231744 AAA
TAFPBI
TAF AMD
KPBI 231744Z 2318/2418 15015KT P6SM SCT030 SCT040 BKN250
     FM240100 16012KT P6SM SCT040 BKN250
     FM241300 21017G28KT P6SM VCSH SCT025 BKN050=



000
FTUS42 KMFL 231744 AAA
TAFFLL
TAF AMD
KFLL 231744Z 2318/2418 14015KT P6SM SCT030 BKN250
     FM240100 16010KT P6SM SCT040 BKN250
     FM241500 23017G28KT P6SM VCSH SCT025 BKN050=



000
FTUS42 KMFL 231744 AAA
TAFAPF
TAF AMD
KAPF 231744Z 2318/2418 15020G29KT P6SM SCT025 BKN250
     FM232300 14008KT P6SM SCT050 BKN250
     FM240600 17008KT P6SM VCTS SCT030CB BKN100 BKN250
     FM241300 25017G28KT P6SM VCSH SCT025 BKN050=



000
FTUS42 KMFL 231744 AAA
TAFAPF
TAF AMD
KAPF 231744Z 2318/2418 15020G29KT P6SM SCT025 BKN250
     FM232300 14008KT P6SM SCT050 BKN250
     FM240600 17008KT P6SM VCTS SCT030CB BKN100 BKN250
     FM241300 25017G28KT P6SM VCSH SCT025 BKN050=



000
FTUS42 KMFL 231744 AAA
TAFMIA
TAF AMD
KMIA 231744Z 2318/2418 15014KT P6SM SCT030 BKN250
     FM240100 14010KT P6SM SCT040 BKN250
     FM241500 21017G28KT P6SM VCSH SCT025 BKN050=



000
FTUS42 KMFL 231744 AAA
TAFMIA
TAF AMD
KMIA 231744Z 2318/2418 15014KT P6SM SCT030 BKN250
     FM240100 14010KT P6SM SCT040 BKN250
     FM241500 21017G28KT P6SM VCSH SCT025 BKN050=



000
FTUS42 KMFL 231739
TAFFLL
TAF
KFLL 231739Z 2318/2418 14015KT P6SM SCT030 BKN250
     FM240100 16010KT P6SM SCT040 BKN250=



000
FTUS42 KMFL 231739
TAFPBI
TAF
KPBI 231739Z 2318/2418 15015KT P6SM SCT030 SCT040 BKN250
     FM240100 16012KT P6SM SCT040 BKN250=



000
FTUS42 KMFL 231739
TAFMIA
TAF
KMIA 231739Z 2318/2418 15014KT P6SM SCT030 BKN250
     FM240100 14010KT P6SM SCT040 BKN250=



000
FTUS42 KMFL 231739
TAFAPF
TAF
KAPF 231739Z 2318/2418 15020G29KT P6SM SCT025 BKN250
     FM232300 14008KT P6SM SCT050 BKN250
     FM240600 17008KT P6SM VCSH SCT035 BKN100 BKN250=



000
FTUS42 KMFL 231739
TAFFLL
TAF
KFLL 231739Z 2318/2418 14015KT P6SM SCT030 BKN250
     FM240100 16010KT P6SM SCT040 BKN250=



000
FTUS42 KMFL 231739
TAFPBI
TAF
KPBI 231739Z 2318/2418 15015KT P6SM SCT030 SCT040 BKN250
     FM240100 16012KT P6SM SCT040 BKN250=



000
FTUS42 KMFL 231739
TAFAPF
TAF
KAPF 231739Z 2318/2418 15020G29KT P6SM SCT025 BKN250
     FM232300 14008KT P6SM SCT050 BKN250
     FM240600 17008KT P6SM VCSH SCT035 BKN100 BKN250=



000
FTUS42 KMFL 231739
TAFMIA
TAF
KMIA 231739Z 2318/2418 15014KT P6SM SCT030 BKN250
     FM240100 14010KT P6SM SCT040 BKN250=



000
FTUS42 KMFL 231605 AAB
TAFAPF
TAF AMD
KAPF 231605Z 2316/2412 15017G25KT P6SM SCT025 BKN250
     FM232300 14008KT P6SM SCT050 BKN250
     FM240600 17008KT P6SM VCSH SCT035 BKN100 BKN250=



000
FTUS42 KMFL 231605 AAB
TAFAPF
TAF AMD
KAPF 231605Z 2316/2412 15017G25KT P6SM SCT025 BKN250
     FM232300 14008KT P6SM SCT050 BKN250
     FM240600 17008KT P6SM VCSH SCT035 BKN100 BKN250=



000
FTUS42 KMFL 231514 AAA
TAFMIA
TAF AMD
KMIA 231514Z 2315/2412 15014KT P6SM SCT030 BKN250
     FM240100 14010KT P6SM SCT040 BKN250=



000
FTUS42 KMFL 231514 AAA
TAFFLL
TAF AMD
KFLL 231514Z 2315/2412 14015KT P6SM SCT030 BKN250
     FM240100 16010KT P6SM SCT040 BKN250=



000
FTUS42 KMFL 231514 AAA
TAFPBI
TAF AMD
KPBI 231514Z 2315/2412 15015KT P6SM SCT030 SCT040 BKN250
     FM240100 16012KT P6SM SCT040 BKN250=



000
FTUS42 KMFL 231514 AAA
TAFMIA
TAF AMD
KMIA 231514Z 2315/2412 15014KT P6SM SCT030 BKN250
     FM240100 14010KT P6SM SCT040 BKN250=



000
FTUS42 KMFL 231514 AAA
TAFPBI
TAF AMD
KPBI 231514Z 2315/2412 15015KT P6SM SCT030 SCT040 BKN250
     FM240100 16012KT P6SM SCT040 BKN250=



000
FTUS42 KMFL 231514 AAA
TAFAPF
TAF AMD
KAPF 231514Z 2315/2412 15014KT P6SM SCT030 BKN060 BKN250
     FM232300 14008KT P6SM SCT050 BKN250
     FM240600 17008KT P6SM VCSH SCT035 BKN100 BKN250=



000
FTUS42 KMFL 231514 AAA
TAFFLL
TAF AMD
KFLL 231514Z 2315/2412 14015KT P6SM SCT030 BKN250
     FM240100 16010KT P6SM SCT040 BKN250=



000
FTUS42 KMFL 231514 AAA
TAFAPF
TAF AMD
KAPF 231514Z 2315/2412 15014KT P6SM SCT030 BKN060 BKN250
     FM232300 14008KT P6SM SCT050 BKN250
     FM240600 17008KT P6SM VCSH SCT035 BKN100 BKN250=



000
FTUS42 KMFL 231120
TAFAPF
TAF
KAPF 231120Z 2312/2412 12007KT P6SM SCT250
     FM231400 15014G20KT P6SM SCT030 BKN060 BKN250
     FM232300 14008KT P6SM SCT050 BKN250
     FM240600 17008KT P6SM VCSH SCT035 BKN100 BKN250=



000
FTUS42 KMFL 231120
TAFAPF
TAF
KAPF 231120Z 2312/2412 12007KT P6SM SCT250
     FM231400 15014G20KT P6SM SCT030 BKN060 BKN250
     FM232300 14008KT P6SM SCT050 BKN250
     FM240600 17008KT P6SM VCSH SCT035 BKN100 BKN250=



000
FTUS42 KMFL 231120
TAFPBI
TAF
KPBI 231120Z 2312/2412 13012KT P6SM SCT030 SCT250
     FM231400 13015G20KT P6SM SCT030 BKN050 BKN250
     FM240100 16012KT P6SM SCT040 BKN250=



000
FTUS42 KMFL 231120
TAFPBI
TAF
KPBI 231120Z 2312/2412 13012KT P6SM SCT030 SCT250
     FM231400 13015G20KT P6SM SCT030 BKN050 BKN250
     FM240100 16012KT P6SM SCT040 BKN250=



000
FTUS42 KMFL 231120
TAFMIA
TAF
KMIA 231120Z 2312/2412 12011KT P6SM FEW025 SCT250
     FM231400 13014KT P6SM SCT030 BKN050 BKN250
     FM240100 14010KT P6SM SCT040 BKN250=



000
FTUS42 KMFL 231120
TAFMIA
TAF
KMIA 231120Z 2312/2412 12011KT P6SM FEW025 SCT250
     FM231400 13014KT P6SM SCT030 BKN050 BKN250
     FM240100 14010KT P6SM SCT040 BKN250=



000
FTUS42 KMFL 231120
TAFFLL
TAF
KFLL 231120Z 2312/2412 13012KT P6SM SCT025 BKN035 BKN250
     FM231400 15016KT P6SM SCT030 BKN050 BKN250
     FM240100 16010KT P6SM SCT040 BKN250=



000
FTUS42 KMFL 231120
TAFFLL
TAF
KFLL 231120Z 2312/2412 13012KT P6SM SCT025 BKN035 BKN250
     FM231400 15016KT P6SM SCT030 BKN050 BKN250
     FM240100 16010KT P6SM SCT040 BKN250=



000
FTUS42 KMFL 230853 AAA
TAFPBI
TAF AMD
KPBI 230853Z 2309/2406 12012KT P6SM FEW030 SCT035 BKN045
     FM231400 13015G20KT P6SM SCT030 BKN050 BKN250
     FM240100 16012KT P6SM SCT040 BKN250=



000
FTUS42 KMFL 230853 AAA
TAFFLL
TAF AMD
KFLL 230853Z 2309/2406 12013KT P6SM FEW025 SCT035 SCT250
     FM231400 15016KT P6SM SCT030 BKN050 BKN250
     FM240100 16010KT P6SM SCT040 BKN250=



000
FTUS42 KMFL 230853 AAA
TAFPBI
TAF AMD
KPBI 230853Z 2309/2406 12012KT P6SM FEW030 SCT035 BKN045
     FM231400 13015G20KT P6SM SCT030 BKN050 BKN250
     FM240100 16012KT P6SM SCT040 BKN250=



000
FTUS42 KMFL 230853 AAA
TAFFLL
TAF AMD
KFLL 230853Z 2309/2406 12013KT P6SM FEW025 SCT035 SCT250
     FM231400 15016KT P6SM SCT030 BKN050 BKN250
     FM240100 16010KT P6SM SCT040 BKN250=



000
FTUS42 KMFL 230853 AAA
TAFMIA
TAF AMD
KMIA 230853Z 2309/2406 11011KT P6SM FEW035 SCT250
     FM231400 13014KT P6SM SCT030 BKN050 BKN250
     FM240100 14010KT P6SM SCT040 BKN250=



000
FTUS42 KMFL 230853 AAA
TAFMIA
TAF AMD
KMIA 230853Z 2309/2406 11011KT P6SM FEW035 SCT250
     FM231400 13014KT P6SM SCT030 BKN050 BKN250
     FM240100 14010KT P6SM SCT040 BKN250=



000
FTUS42 KMFL 230853 AAA
TAFAPF
TAF AMD
KAPF 230853Z 2309/2406 11009KT P6SM SCT250
     FM231400 15014G20KT P6SM SCT030 BKN060 BKN250
     FM232300 14008KT P6SM SCT050 BKN250=



000
FTUS42 KMFL 230853 AAA
TAFAPF
TAF AMD
KAPF 230853Z 2309/2406 11009KT P6SM SCT250
     FM231400 15014G20KT P6SM SCT030 BKN060 BKN250
     FM232300 14008KT P6SM SCT050 BKN250=



000
FTUS42 KMFL 230537
TAFFLL
TAF
KFLL 230537Z 2306/2406 12012KT P6SM FEW025 FEW250
     FM231400 15016KT P6SM SCT030 BKN050 BKN250
     FM240100 16010KT P6SM SCT040 BKN250=



000
FTUS42 KMFL 230537
TAFPBI
TAF
KPBI 230537Z 2306/2406 10013KT P6SM SCT035 SCT050 SCT250
      TEMPO 2306/2310 BKN050
     FM231400 13015G20KT P6SM SCT030 BKN050 BKN250
     FM240100 16012KT P6SM SCT040 BKN250=



000
FTUS42 KMFL 230537
TAFAPF
TAF
KAPF 230537Z 2306/2406 12007KT P6SM FEW250
     FM231400 15014G20KT P6SM SCT030 BKN060 BKN250
     FM232300 14008KT P6SM SCT050 BKN250=



000
FTUS42 KMFL 230537
TAFMIA
TAF
KMIA 230537Z 2306/2406 11011KT P6SM FEW035 FEW250
     FM231400 13014KT P6SM SCT030 BKN050 BKN250
     FM240100 14010KT P6SM SCT040 BKN250=



000
FTUS42 KMFL 230537
TAFPBI
TAF
KPBI 230537Z 2306/2406 10013KT P6SM SCT035 SCT050 SCT250
      TEMPO 2306/2310 BKN050
     FM231400 13015G20KT P6SM SCT030 BKN050 BKN250
     FM240100 16012KT P6SM SCT040 BKN250=



000
FTUS42 KMFL 230537
TAFMIA
TAF
KMIA 230537Z 2306/2406 11011KT P6SM FEW035 FEW250
     FM231400 13014KT P6SM SCT030 BKN050 BKN250
     FM240100 14010KT P6SM SCT040 BKN250=



000
FTUS42 KMFL 230537
TAFAPF
TAF
KAPF 230537Z 2306/2406 12007KT P6SM FEW250
     FM231400 15014G20KT P6SM SCT030 BKN060 BKN250
     FM232300 14008KT P6SM SCT050 BKN250=



000
FTUS42 KMFL 230537
TAFFLL
TAF
KFLL 230537Z 2306/2406 12012KT P6SM FEW025 FEW250
     FM231400 15016KT P6SM SCT030 BKN050 BKN250
     FM240100 16010KT P6SM SCT040 BKN250=



000
FTUS42 KMFL 230343 AAA
TAFPBI
TAF AMD
KPBI 230343Z 2304/2324 12011KT P6SM SCT025 SCT250
     FM231400 13015KT P6SM SCT030 BKN050 BKN250=



000
FTUS42 KMFL 230343 AAA
TAFAPF
TAF AMD
KAPF 230343Z 2304/2324 11007KT P6SM SCT045 SCT250
     FM230600 09007KT P6SM FEW040 SCT250
     FM231400 15014G24KT P6SM SCT030 BKN060 BKN250=



000
FTUS42 KMFL 230343 AAA
TAFFLL
TAF AMD
KFLL 230343Z 2304/2324 12011KT P6SM SCT030 SCT250
     FM231400 15016KT P6SM SCT030 BKN050 BKN250=



000
FTUS42 KMFL 230343 AAA
TAFPBI
TAF AMD
KPBI 230343Z 2304/2324 12011KT P6SM SCT025 SCT250
     FM231400 13015KT P6SM SCT030 BKN050 BKN250=



000
FTUS42 KMFL 230343 AAA
TAFMIA
TAF AMD
KMIA 230343Z 2304/2324 10009KT P6SM FEW035 FEW250
     FM231400 13014KT P6SM SCT030 BKN050 BKN250=



000
FTUS42 KMFL 230343 AAA
TAFFLL
TAF AMD
KFLL 230343Z 2304/2324 12011KT P6SM SCT030 SCT250
     FM231400 15016KT P6SM SCT030 BKN050 BKN250=



000
FTUS42 KMFL 230343 AAA
TAFAPF
TAF AMD
KAPF 230343Z 2304/2324 11007KT P6SM SCT045 SCT250
     FM230600 09007KT P6SM FEW040 SCT250
     FM231400 15014G24KT P6SM SCT030 BKN060 BKN250=



000
FTUS42 KMFL 230343 AAA
TAFAPF
TAF AMD
KAPF 230343Z 2304/2324 11007KT P6SM SCT045 SCT250
     FM230600 09007KT P6SM FEW040 SCT250
     FM231400 15014G24KT P6SM SCT030 BKN060 BKN250=



000
FTUS42 KMFL 230343 AAA
TAFMIA
TAF AMD
KMIA 230343Z 2304/2324 10009KT P6SM FEW035 FEW250
     FM231400 13014KT P6SM SCT030 BKN050 BKN250=



000
FTUS42 KMFL 230343 AAA
TAFMIA
TAF AMD
KMIA 230343Z 2304/2324 10009KT P6SM FEW035 FEW250
     FM231400 13014KT P6SM SCT030 BKN050 BKN250=



000
FTUS42 KMFL 230343 AAA
TAFFLL
TAF AMD
KFLL 230343Z 2304/2324 12011KT P6SM SCT030 SCT250
     FM231400 15016KT P6SM SCT030 BKN050 BKN250=



000
FTUS42 KMFL 222323
TAFFLL
TAF
KFLL 222323Z 2300/2324 11010KT P6SM SCT025 SCT035 BKN050
     FM231400 15016KT P6SM SCT030 BKN050 BKN250=



000
FTUS42 KMFL 222323
TAFPBI
TAF
KPBI 222323Z 2300/2324 10010KT P6SM FEW030 SCT250
     FM231400 13015KT P6SM SCT030 BKN050 BKN250=



000
FTUS42 KMFL 222323
TAFPBI
TAF
KPBI 222323Z 2300/2324 10010KT P6SM FEW030 SCT250
     FM231400 13015KT P6SM SCT030 BKN050 BKN250=



000
FTUS42 KMFL 222323
TAFAPF
TAF
KAPF 222323Z 2300/2324 VRB05KT P6SM SCT060
     FM230600 09007KT P6SM FEW040 SCT250
     FM231400 15014G24KT P6SM SCT030 BKN060 BKN250=



000
FTUS42 KMFL 222323
TAFFLL
TAF
KFLL 222323Z 2300/2324 11010KT P6SM SCT025 SCT035 BKN050
     FM231400 15016KT P6SM SCT030 BKN050 BKN250=



000
FTUS42 KMFL 222323
TAFAPF
TAF
KAPF 222323Z 2300/2324 VRB05KT P6SM SCT060
     FM230600 09007KT P6SM FEW040 SCT250
     FM231400 15014G24KT P6SM SCT030 BKN060 BKN250=



000
FTUS42 KMFL 222323
TAFMIA
TAF
KMIA 222323Z 2300/2324 09009KT P6SM SCT035 SCT300
     FM231400 13014KT P6SM SCT030 BKN050 BKN250=



    US Dept of Commerce
    National Oceanic and Atmospheric Administration
    National Weather Service
    1325 East West Highway
    Silver Spring, MD 20910
    Page Author: NWS Internet Services Team
Disclaimer
Information Quality
Credits
Glossary
Privacy Policy
Freedom of Information Act (FOIA)
About Us
Career Opportunities